Time;durP1;ratioP1;P1;durP2;ratioP2;P2;SDS_P1;SDS_P2;PMS_P1;PMS_P2;Temp;Humidity;BMP_temperature;BMP_pressure;BME280_temperature;BME280_humidity;BME280_pressure;Samples;Min_cycle;Max_cycle;Signal;HPM_P1;HPM_P2
2022/09/30 00:02:02;;;;;;;;;;;12.90;99.90;;;11.01;100.00;99217.09;10457257;28;19979;-88
2022/09/30 00:07:04;;;;;;;;;;;12.90;99.90;;;11.04;100.00;99219.38;10459675;28;20315;-88
2022/09/30 00:12:09;;;;;;;;;;;13.00;99.90;;;11.09;100.00;99229.41;10455556;28;19972;-88
2022/09/30 00:17:12;;;;;;;;;;;13.00;99.90;;;11.13;100.00;99228.00;10446070;28;19929;-88
2022/09/30 00:22:14;;;;;;;;;;;13.10;99.90;;;11.16;100.00;99230.28;10447880;28;20023;-86
2022/09/30 00:27:18;;;;;;;;;;;13.10;99.90;;;11.18;100.00;99231.72;10460891;28;19980;-86
2022/09/30 00:32:21;;;;;;;;;;;13.10;99.90;;;11.20;100.00;99215.56;10454899;28;19987;-86
2022/09/30 00:37:24;;;;;;;;;;;13.10;99.90;;;11.21;100.00;99204.72;10473275;28;19936;-86
2022/09/30 00:42:28;;;;;;;;;;;13.10;99.90;;;11.21;100.00;99220.66;10458957;28;20020;-87
2022/09/30 00:48:15;;;;;;;;;;;13.10;99.90;;;11.22;100.00;99216.22;10458289;28;19929;-87
2022/09/30 00:53:29;;;;;;;;;;;13.10;99.90;;;11.24;100.00;99216.81;10433274;28;19929;-87
2022/09/30 00:58:35;;;;;;;;;;;13.10;99.90;;;11.25;100.00;99218.47;10457490;28;19936;-86
2022/09/30 01:03:50;;;;;;;;;;;13.20;99.90;;;11.24;100.00;99207.00;10447946;28;19932;-86
2022/09/30 01:08:54;;;;;;;;;;;13.10;99.90;;;11.26;100.00;99207.63;10457538;28;19929;-86
2022/09/30 01:14:01;;;;;;;;;;;13.10;99.90;;;11.24;100.00;99200.88;10431710;28;20348;-86
2022/09/30 01:19:15;;;;;;;;;;;13.10;99.90;;;11.25;100.00;99189.19;10474705;28;20454;-88
2022/09/30 01:24:33;;;;;;;;;;;13.10;99.90;;;11.27;100.00;99189.81;10455547;28;20316;-88
2022/09/30 01:30:04;;;;;;;;;;;13.20;99.90;;;11.32;100.00;99194.56;10455796;28;19980;-88
2022/09/30 01:35:11;;;;;;;;;;;13.20;99.90;;;11.35;100.00;99191.50;10458102;28;19928;-88
2022/09/30 01:40:25;;;;;;;;;;;13.30;99.90;;;11.41;100.00;99201.38;10439117;28;20031;-88
2022/09/30 01:45:37;;;;;;;;;;;13.30;99.90;;;11.45;100.00;99198.09;10455650;28;20308;-88
2022/09/30 01:50:53;;;;;;;;;;;13.40;99.90;;;11.48;100.00;99200.38;10442515;28;20357;-88
2022/09/30 01:56:05;;;;;;;;;;;13.40;99.90;;;11.52;100.00;99193.66;10456817;28;19936;-88
2022/09/30 02:01:12;;;;;;;;;;;13.40;99.90;;;11.57;100.00;99202.84;10438735;28;19972;-88
2022/09/30 02:06:20;;;;;;;;;;;13.50;99.90;;;11.60;100.00;99199.81;10454039;28;19933;-86
2022/09/30 02:11:29;;;;;;;;;;;13.50;99.90;;;11.62;100.00;99177.28;10443560;28;19928;-87
2022/09/30 02:16:45;;;;;;;;;;;13.60;99.90;;;11.62;100.00;99176.47;10442410;28;19936;-86
2022/09/30 02:21:57;;;;;;;;;;;13.60;99.90;;;11.63;100.00;99170.13;10456651;28;20393;-87
2022/09/30 02:27:01;;;;;;;;;;;13.60;99.90;;;11.61;100.00;99182.81;10454876;28;20316;-86
2022/09/30 02:32:14;;;;;;;;;;;13.50;99.90;;;11.63;100.00;99172.78;10440778;28;20082;-87
2022/09/30 02:37:18;;;;;;;;;;;13.50;99.90;;;11.63;100.00;99184.25;10438874;28;19930;-87
2022/09/30 02:42:27;;;;;;;;;;;13.50;99.90;;;11.63;100.00;99188.75;10453349;28;20363;-87
2022/09/30 02:47:48;;;;;;;;;;;13.50;99.90;;;11.64;100.00;99206.38;10450607;28;19929;-86
2022/09/30 02:53:06;;;;;;;;;;;13.50;99.90;;;11.67;100.00;99212.09;10454063;28;20051;-86
2022/09/30 02:58:15;;;;;;;;;;;13.60;99.90;;;11.71;100.00;99188.59;10462017;28;19929;-86
2022/09/30 03:03:32;;;;;;;;;;;13.60;99.90;;;11.73;100.00;99163.41;10445015;28;19994;-87
2022/09/30 03:08:35;;;;;;;;;;;13.70;99.90;;;11.76;100.00;99159.53;10445584;28;20304;-86
2022/09/30 03:14:02;;;;;;;;;;;13.70;99.90;;;11.78;100.00;99173.47;10436445;28;19991;-86
2022/09/30 03:19:35;;;;;;;;;;;13.70;99.90;;;11.80;100.00;99163.44;10461770;28;20431;-86
2022/09/30 03:25:00;;;;;;;;;;;13.70;99.90;;;11.82;100.00;99156.13;10461896;28;19929;-86
2022/09/30 03:30:15;;;;;;;;;;;13.70;99.90;;;11.85;100.00;99144.22;10459172;28;19979;-87
2022/09/30 03:35:29;;;;;;;;;;;13.80;99.90;;;11.86;100.00;99153.84;10462402;28;19968;-86
2022/09/30 03:40:35;;;;;;;;;;;13.80;99.90;;;11.86;100.00;99164.50;10461240;28;19929;-87
2022/09/30 03:45:45;;;;;;;;;;;13.80;99.90;;;11.86;100.00;99183.94;10447422;28;20308;-86
2022/09/30 03:50:48;;;;;;;;;;;13.80;99.90;;;11.86;100.00;99175.16;10462583;28;19929;-86
2022/09/30 03:55:51;;;;;;;;;;;13.80;99.90;;;11.91;100.00;99184.16;10459206;28;20448;-87
2022/09/30 04:00:55;;;;;;;;;;;13.80;99.90;;;11.93;100.00;99160.00;10458967;28;19929;-86
2022/09/30 04:05:58;;;;;;;;;;;13.80;99.90;;;11.93;100.00;99155.50;10457968;28;20316;-86
2022/09/30 04:11:02;;;;;;;;;;;13.80;99.90;;;11.97;100.00;99164.72;10457213;28;19933;-86
2022/09/30 04:16:06;;;;;;;;;;;13.90;99.90;;;12.01;100.00;99165.97;10473044;28;19928;-88
2022/09/30 04:21:12;;;;;;;;;;;13.90;99.90;;;12.02;100.00;99166.78;10459861;28;19928;-89
2022/09/30 04:26:18;;;;;;;;;;;14.00;99.90;;;12.07;100.00;99163.53;10458448;28;19929;-88
2022/09/30 04:31:21;;;;;;;;;;;14.00;99.90;;;12.13;100.00;99170.72;10451284;28;19960;-88
2022/09/30 04:36:24;;;;;;;;;;;14.00;99.90;;;12.16;100.00;99178.28;10467345;28;19975;-89
2022/09/30 04:41:26;;;;;;;;;;;14.10;99.90;;;12.19;100.00;99184.03;10458849;28;20422;-89
2022/09/30 04:46:29;;;;;;;;;;;14.10;99.90;;;12.23;100.00;99176.44;10461918;28;19928;-89
2022/09/30 04:51:32;;;;;;;;;;;14.10;99.90;;;12.29;100.00;99184.47;10476327;28;19929;-89
2022/09/30 04:56:34;;;;;;;;;;;14.20;99.90;;;12.30;100.00;99196.75;10455361;28;19929;-89
2022/09/30 05:01:38;;;;;;;;;;;14.20;99.90;;;12.34;100.00;99197.16;10453497;28;19929;-90
2022/09/30 05:06:40;;;;;;;;;;;14.20;99.90;;;12.37;100.00;99204.75;10458074;28;19929;-89
2022/09/30 05:11:44;;;;;;;;;;;14.30;99.90;;;12.40;100.00;99207.00;10455210;28;19979;-96
2022/09/30 05:16:47;;;;;;;;;;;14.30;99.90;;;12.45;100.00;99209.88;10429891;28;19929;-89
2022/09/30 05:21:51;;;;;;;;;;;14.40;99.90;;;12.46;100.00;99222.16;10459402;28;20396;-91
2022/09/30 05:26:54;;;;;;;;;;;14.40;99.90;;;12.50;100.00;99222.59;10457900;28;19967;-88
2022/09/30 05:31:56;;;;;;;;;;;14.40;99.90;;;12.54;100.00;99218.50;10456066;28;19929;-86
2022/09/30 05:36:59;;;;;;;;;;;14.50;99.90;;;12.56;100.00;99217.25;10440466;28;20351;-90
2022/09/30 05:42:02;;;;;;;;;;;14.50;99.90;;;12.62;100.00;99225.47;10455484;28;19935;-88
2022/09/30 05:47:05;;;;;;;;;;;14.60;99.90;;;12.67;100.00;99217.69;10439162;28;20352;-87
2022/09/30 05:52:08;;;;;;;;;;;14.60;99.90;;;12.72;100.00;99224.03;10463861;28;19929;-88
2022/09/30 05:57:10;;;;;;;;;;;14.70;99.90;;;12.77;100.00;99223.41;10446647;28;19959;-87
2022/09/30 06:02:13;;;;;;;;;;;14.70;99.90;;;12.79;100.00;99232.84;10434393;28;19933;-88
2022/09/30 06:07:16;;;;;;;;;;;14.70;99.90;;;12.82;100.00;99236.94;10447586;28;19929;-88
2022/09/30 06:12:19;;;;;;;;;;;14.70;99.90;;;12.83;100.00;99235.91;10456360;28;19975;-93
2022/09/30 06:17:22;;;;;;;;;;;14.70;99.90;;;12.84;100.00;99229.56;10455727;28;19935;-90
2022/09/30 06:22:26;;;;;;;;;;;14.80;99.90;;;12.85;100.00;99231.19;10442372;28;19976;-95
2022/09/30 06:27:28;;;;;;;;;;;14.80;99.90;;;12.84;100.00;99235.72;10492189;22;19990;-89
2022/09/30 06:32:31;;;;;;;;;;;14.70;99.90;;;12.85;100.00;99240.03;10527296;28;20011;-88
2022/09/30 06:37:36;;;;;;;;;;;14.80;99.90;;;12.85;100.00;99241.88;10527715;28;20307;-88
2022/09/30 06:42:38;;;;;;;;;;;14.80;99.90;;;12.87;100.00;99250.47;10529049;28;19983;-89
2022/09/30 06:47:41;;;;;;;;;;;14.70;99.90;;;12.85;100.00;99245.34;10533002;28;19929;-91
2022/09/30 06:53:01;;;;;;;;;;;14.80;99.90;;;12.86;100.00;99246.16;10529577;28;20046;-91
2022/09/30 06:58:10;;;;;;;;;;;14.70;99.90;;;12.87;100.00;99255.81;10508042;28;19928;-90
2022/09/30 07:03:28;;;;;;;;;;;14.70;99.90;;;12.88;100.00;99253.97;10511173;28;19928;-90
2022/09/30 07:08:33;;;;;;;;;;;14.70;99.90;;;12.86;100.00;99255.00;10526733;28;20045;-90
2022/09/30 07:13:36;;;;;;;;;;;14.80;99.90;;;12.90;100.00;99271.41;10530042;28;19935;-90
2022/09/30 07:18:42;;;;;;;;;;;14.80;99.90;;;12.94;100.00;99269.13;10522706;28;19935;-91
2022/09/30 07:23:48;;;;;;;;;;;14.80;99.90;;;12.95;100.00;99284.91;10528512;28;19936;-91
2022/09/30 07:28:51;;;;;;;;;;;14.90;99.90;;;13.01;100.00;99280.59;10537684;28;19958;-91
2022/09/30 07:33:55;;;;;;;;;;;14.90;99.90;;;13.04;100.00;99293.56;10518657;28;19929;-91
2022/09/30 07:38:59;;;;;;;;;;;14.90;99.90;;;13.04;100.00;99289.03;10522521;28;20017;-92
2022/09/30 07:44:02;;;;;;;;;;;15.00;99.90;;;13.09;100.00;99305.25;10507940;28;19929;-92
2022/09/30 07:49:11;;;;;;;;;;;15.00;99.90;;;13.13;100.00;99314.50;10531907;28;20007;-89
2022/09/30 07:54:17;;;;;;;;;;;15.00;99.90;;;13.13;100.00;99314.50;10527679;28;19928;-90
2022/09/30 07:59:20;;;;;;;;;;;15.10;99.90;;;13.16;100.00;99323.09;10534012;28;19933;-89
2022/09/30 08:04:25;;;;;;;;;;;15.10;99.90;;;13.20;100.00;99324.34;10520776;28;19960;-90
2022/09/30 08:09:29;;;;;;;;;;;15.10;99.90;;;13.27;100.00;99330.50;10545217;28;19928;-89
2022/09/30 08:14:32;;;;;;;;;;;15.10;99.90;;;13.31;100.00;99329.06;10514411;28;19928;-88
2022/09/30 08:19:35;;;;;;;;;;;15.20;99.90;;;13.36;100.00;99331.94;10486139;28;19936;-89
2022/09/30 08:24:38;;;;;;;;;;;15.30;99.90;;;13.41;100.00;99342.81;10510148;28;19935;-89
2022/09/30 08:29:40;;;;;;;;;;;15.30;99.90;;;13.45;100.00;99337.88;10485489;28;19936;-88
2022/09/30 08:34:57;;;;;;;;;;;15.40;99.90;;;13.50;100.00;99346.09;10523561;28;20023;-88
2022/09/30 08:40:01;;;;;;;;;;;15.40;99.90;;;13.55;100.00;99352.44;10531502;28;19936;-88
2022/09/30 08:45:42;;;;;;;;;;;15.50;99.90;;;13.62;100.00;99365.78;10537459;28;19932;-89
2022/09/30 08:50:51;;;;;;;;;;;15.50;99.90;;;13.68;100.00;99369.47;10540495;28;19929;-88
2022/09/30 08:55:56;;;;;;;;;;;15.60;99.90;;;13.71;100.00;99369.88;10534627;28;19968;-87
2022/09/30 09:01:28;;;;;;;;;;;15.60;99.90;;;13.77;100.00;99382.38;10523434;28;19929;-87
2022/09/30 09:06:51;;;;;;;;;;;15.70;99.90;;;13.84;100.00;99385.84;10535787;28;19928;-86
2022/09/30 09:11:59;;;;;;;;;;;15.70;99.90;;;13.84;100.00;99388.53;10539226;28;19928;-86
2022/09/30 09:17:19;;;;;;;;;;;15.80;99.90;;;13.81;100.00;99393.47;10539339;28;20276;-86
2022/09/30 09:22:24;;;;;;;;;;;15.70;99.90;;;13.82;100.00;99392.44;10529364;28;19933;-86
2022/09/30 09:27:36;;;;;;;;;;;15.70;99.90;;;13.85;100.00;99406.22;10518506;28;20391;-86
2022/09/30 09:32:40;;;;;;;;;;;15.70;99.90;;;13.86;100.00;99410.53;10536535;28;20596;-86
2022/09/30 09:38:26;;;;;;;;;;;15.70;99.90;;;13.82;100.00;99411.97;10511881;28;20038;-85
2022/09/30 09:43:42;;;;;;;;;;;15.70;99.90;;;13.76;100.00;99420.81;10533158;28;19936;-86
2022/09/30 09:48:45;;;;;;;;;;;15.60;99.90;;;13.79;100.00;99423.03;10530237;28;19928;-85
2022/09/30 09:53:50;;;;;;;;;;;15.60;99.90;;;13.90;100.00;99424.25;10523533;28;20349;-85
2022/09/30 09:59:04;;;;;;;;;;;15.70;99.90;;;14.01;100.00;99422.81;10538931;28;20354;-85
2022/09/30 10:04:22;;;;;;;;;;;15.80;99.90;;;14.19;100.00;99436.31;10526171;28;20314;-85
2022/09/30 10:09:35;;;;;;;;;;;16.00;99.90;;;14.32;100.00;99441.63;10528461;28;19975;-85
2022/09/30 10:14:51;;;;;;;;;;;16.10;99.90;;;14.57;100.00;99436.41;10542685;28;19951;-86
2022/09/30 10:20:00;;;;;;;;;;;16.40;99.90;;;14.82;100.00;99433.03;10527248;28;19928;-85
2022/09/30 10:25:12;;;;;;;;;;;16.70;99.90;;;15.08;100.00;99427.53;10538095;28;19936;-84
2022/09/30 10:30:42;;;;;;;;;;;16.90;99.90;;;15.35;100.00;99433.50;10530005;28;19935;-84
2022/09/30 10:36:00;;;;;;;;;;;17.30;99.90;;;15.42;100.00;99426.25;10509140;28;19971;-84
2022/09/30 10:41:04;;;;;;;;;;;17.40;99.90;;;15.39;100.00;99453.44;10517265;28;19936;-84
2022/09/30 10:46:08;;;;;;;;;;;17.40;99.90;;;15.40;100.00;99475.69;10515303;28;19928;-84
2022/09/30 10:51:35;;;;;;;;;;;17.40;99.90;;;15.66;100.00;99470.19;10545223;28;19928;-84
2022/09/30 10:56:51;;;;;;;;;;;17.60;99.90;;;15.94;100.00;99467.03;10545454;28;19935;-83
2022/09/30 11:01:59;;;;;;;;;;;18.00;99.90;;;16.09;100.00;99464.03;10538969;28;20019;-84
2022/09/30 11:07:32;;;;;;;;;;;18.10;99.90;;;16.26;100.00;99477.69;10521166;28;19935;-83
2022/09/30 11:12:49;;;;;;;;;;;18.30;99.90;;;16.25;100.00;99506.34;10537215;28;20306;-83
2022/09/30 11:17:58;;;;;;;;;;;18.30;99.90;;;16.20;100.00;99519.59;10532622;28;20070;-83
2022/09/30 11:23:03;;;;;;;;;;;18.20;99.90;;;16.08;100.00;99529.38;10543347;28;20407;-83
2022/09/30 11:28:24;;;;;;;;;;;18.10;99.90;;;15.90;100.00;99542.75;10516872;28;20013;-83
2022/09/30 11:33:26;;;;;;;;;;;17.90;99.90;;;15.75;100.00;99543.84;10522051;28;19963;-83
2022/09/30 11:38:44;;;;;;;;;;;17.70;99.90;;;15.63;100.00;99556.31;10530789;28;20013;-83
2022/09/30 11:44:10;;;;;;;;;;;17.60;99.90;;;15.60;100.00;99558.59;10537687;28;19935;-84
2022/09/30 11:49:34;;;;;;;;;;;17.50;99.90;;;16.06;100.00;99579.69;10510376;28;19929;-84
2022/09/30 11:54:57;;;;;;;;;;;18.00;99.90;;;16.13;100.00;99576.94;10539425;28;19971;-84
2022/09/30 12:00:12;;;;;;;;;;;18.10;99.90;;;16.04;100.00;99595.19;10520969;28;19928;-84
2022/09/30 12:05:24;;;;;;;;;;;18.00;99.90;;;16.35;100.00;99601.53;10535860;28;20011;-84
2022/09/30 12:10:32;;;;;;;;;;;18.20;99.90;;;16.50;100.00;99615.44;10543487;28;20417;-84
2022/09/30 12:15:35;;;;;;;;;;;18.40;99.90;;;16.47;100.00;99613.16;10519904;28;20051;-84
2022/09/30 12:20:43;;;;;;;;;;;18.40;99.90;;;16.42;100.00;99623.72;10522002;28;20280;-84
2022/09/30 12:25:52;;;;;;;;;;;18.30;99.90;;;16.35;100.00;99628.34;10526506;28;20049;-84
2022/09/30 12:31:08;;;;;;;;;;;18.20;99.90;;;16.36;100.00;99640.69;10542972;28;19928;-85
2022/09/30 12:36:38;;;;;;;;;;;18.20;99.90;;;16.29;100.00;99644.25;10511164;28;19962;-84
2022/09/30 12:41:45;;;;;;;;;;;18.10;99.90;;;16.20;100.00;99642.06;10521358;28;20238;-83
2022/09/30 12:47:19;;;;;;;;;;;18.10;99.90;;;16.26;100.00;99668.00;10537882;28;19950;-83
2022/09/30 12:52:22;;;;;;;;;;;18.10;99.90;;;16.42;100.00;99672.00;10519170;28;19936;-83
2022/09/30 12:57:31;;;;;;;;;;;18.30;99.90;;;16.44;100.00;99680.66;10521483;28;20483;-83
2022/09/30 13:02:39;;;;;;;;;;;18.40;99.90;;;16.27;100.00;99685.75;10540580;28;19929;-83
2022/09/30 13:08:05;;;;;;;;;;;18.20;99.90;;;16.06;99.49;99701.13;10531893;28;20011;-83
2022/09/30 13:13:26;;;;;;;;;;;18.10;99.90;;;15.95;99.41;99709.00;10524501;28;19932;-83
2022/09/30 13:18:29;;;;;;;;;;;17.90;99.90;;;15.88;98.76;99713.59;10531801;28;20431;-83
2022/09/30 13:23:48;;;;;;;;;;;17.80;99.90;;;15.87;99.48;99701.22;10528334;28;19928;-83
2022/09/30 13:28:53;;;;;;;;;;;17.80;99.90;;;15.82;98.46;99688.47;10536913;28;19928;-84
2022/09/30 13:34:01;;;;;;;;;;;17.70;99.90;;;15.71;98.04;99692.69;10528591;28;19929;-84
2022/09/30 13:39:19;;;;;;;;;;;17.70;99.90;;;15.59;97.72;99714.91;10510535;28;19936;-83
2022/09/30 13:44:30;;;;;;;;;;;17.60;99.90;;;15.56;98.22;99726.91;10521650;28;19935;-83
2022/09/30 13:49:42;;;;;;;;;;;17.50;99.90;;;15.55;98.30;99743.19;10531377;28;20329;-84
2022/09/30 13:54:46;;;;;;;;;;;17.50;99.90;;;15.56;97.91;99742.97;10536729;28;19990;-83
2022/09/30 14:00:00;;;;;;;;;;;17.50;99.90;;;15.57;98.10;99741.09;10538324;28;20287;-84
2022/09/30 14:05:22;;;;;;;;;;;17.50;99.90;;;15.57;97.69;99747.28;10531069;28;20007;-84
2022/09/30 14:11:05;;;;;;;;;;;17.50;99.90;;;15.53;97.54;99748.72;10534710;28;19936;-83
2022/09/30 14:16:11;;;;;;;;;;;17.50;99.90;;;15.48;97.36;99748.56;10527982;28;19928;-84
2022/09/30 14:21:30;;;;;;;;;;;17.40;99.90;;;15.47;97.71;99744.22;10523212;28;20372;-83
2022/09/30 14:27:01;;;;;;;;;;;17.40;99.90;;;15.46;98.11;99747.94;10518342;28;19990;-84
2022/09/30 14:32:13;;;;;;;;;;;17.40;99.90;;;15.50;98.17;99759.88;10522205;28;19928;-83
2022/09/30 14:37:40;;;;;;;;;;;17.40;99.90;;;15.53;97.94;99754.06;10538919;28;19971;-82
2022/09/30 14:42:44;;;;;;;;;;;17.50;99.90;;;15.45;96.35;99748.97;10538683;28;20018;-83
2022/09/30 14:47:49;;;;;;;;;;;17.40;99.90;;;15.38;96.87;99759.69;10508951;28;19978;-83
2022/09/30 14:52:54;;;;;;;;;;;17.30;99.90;;;15.36;97.73;99745.72;10522097;28;19935;-83
2022/09/30 14:58:20;;;;;;;;;;;17.40;99.90;;;15.31;97.47;99753.53;10530055;28;20018;-83
2022/09/30 15:03:25;;;;;;;;;;;17.30;99.90;;;15.24;97.61;99758.91;10538053;28;20060;-82
2022/09/30 15:08:28;;;;;;;;;;;17.20;99.90;;;15.18;97.65;99749.03;10541307;28;20471;-82
2022/09/30 15:13:31;;;;;;;;;;;17.20;99.90;;;15.17;98.57;99779.50;10545532;28;20039;-82
2022/09/30 15:18:43;;;;;;;;;;;17.20;99.90;;;15.08;98.07;99777.25;10527186;28;19929;-82
2022/09/30 15:23:54;;;;;;;;;;;17.10;99.90;;;14.97;98.69;99787.53;10533571;28;20383;-82
2022/09/30 15:28:57;;;;;;;;;;;17.00;99.90;;;14.84;98.98;99786.72;10532493;28;19935;-83
2022/09/30 15:34:23;;;;;;;;;;;16.80;99.90;;;14.73;99.75;99802.34;10541430;28;19964;-82
2022/09/30 15:44:50;;;;;;;;;;;16.60;99.90;;;14.59;100.00;99818.59;10538874;28;20395;-82
2022/09/30 15:49:54;;;;;;;;;;;16.60;99.90;;;14.49;100.00;99818.16;10525193;28;20014;-82
2022/09/30 15:54:58;;;;;;;;;;;16.50;99.90;;;14.37;100.00;99821.38;10550759;28;19935;-82
2022/09/30 16:00:06;;;;;;;;;;;16.40;99.90;;;14.24;100.00;99837.38;10536389;28;20011;-81
2022/09/30 16:05:09;;;;;;;;;;;16.30;99.90;;;14.12;100.00;99839.78;10526782;28;19963;-82
2022/09/30 16:10:19;;;;;;;;;;;16.10;99.90;;;14.01;100.00;99851.06;10530020;28;20315;-82
2022/09/30 16:15:22;;;;;;;;;;;16.00;99.90;;;13.92;100.00;99845.06;10534081;28;19928;-82
2022/09/30 16:20:25;;;;;;;;;;;15.90;99.90;;;13.86;100.00;99859.22;10513511;28;19928;-82
2022/09/30 16:25:32;;;;;;;;;;;15.80;99.90;;;13.78;100.00;99861.19;10537149;28;20159;-82
2022/09/30 16:30:37;;;;;;;;;;;15.80;99.90;;;13.71;100.00;99868.34;10531497;28;20398;-82
2022/09/30 16:35:41;;;;;;;;;;;15.70;99.90;;;13.64;100.00;99860.31;10520505;28;20458;-82
2022/09/30 16:40:44;;;;;;;;;;;15.70;99.90;;;13.58;100.00;99859.25;10531960;28;20421;-82
2022/09/30 16:45:47;;;;;;;;;;;15.60;99.90;;;13.49;100.00;99871.06;10531979;28;19935;-82
2022/09/30 16:50:59;;;;;;;;;;;15.50;99.90;;;13.43;100.00;99879.84;10534645;28;19935;-82
2022/09/30 16:56:03;;;;;;;;;;;15.40;99.90;;;13.36;100.00;99897.66;10524260;28;19928;-81
2022/09/30 17:01:10;;;;;;;;;;;15.40;99.90;;;13.27;100.00;99881.00;10530014;28;19928;-82
2022/09/30 17:06:16;;;;;;;;;;;15.30;99.90;;;13.22;100.00;99877.25;10541722;28;19928;-82
2022/09/30 17:11:25;;;;;;;;;;;15.20;99.90;;;13.20;100.00;99884.59;10533400;28;19935;-82
2022/09/30 17:16:29;;;;;;;;;;;15.20;99.90;;;13.13;100.00;99893.38;10517026;28;19955;-82
2022/09/30 17:21:34;;;;;;;;;;;15.10;99.90;;;13.07;100.00;99902.13;10501890;28;20023;-82
2022/09/30 17:26:38;;;;;;;;;;;15.00;99.90;;;13.00;100.00;99911.06;10484358;28;19979;-82
2022/09/30 17:31:41;;;;;;;;;;;15.00;99.90;;;12.89;100.00;99914.22;10509652;28;19958;-82
2022/09/30 17:36:44;;;;;;;;;;;14.90;99.90;;;12.81;100.00;99905.34;10540413;28;19970;-82
2022/09/30 17:47:07;;;;;;;;;;;14.70;99.90;;;12.73;100.00;99910.81;10521146;28;19936;-82
2022/09/30 17:52:13;;;;;;;;;;;14.70;99.90;;;12.72;100.00;99913.69;10530628;28;19928;-82
2022/09/30 17:57:17;;;;;;;;;;;14.60;99.90;;;12.69;100.00;99908.69;10512051;28;19928;-82
2022/09/30 18:02:21;;;;;;;;;;;14.60;99.90;;;12.64;100.00;99916.44;10498490;28;19979;-82
2022/09/30 18:07:26;;;;;;;;;;;14.60;99.90;;;12.62;100.00;99921.97;10531577;28;20011;-82
2022/09/30 18:12:29;;;;;;;;;;;14.60;99.90;;;12.62;100.00;99939.78;10541164;28;19929;-82
2022/09/30 18:17:32;;;;;;;;;;;14.50;99.90;;;12.59;100.00;99941.84;10539304;28;20392;-82
2022/09/30 18:22:39;;;;;;;;;;;14.60;99.90;;;12.61;100.00;99952.31;10525104;28;20015;-82
2022/09/30 18:27:42;;;;;;;;;;;14.60;99.90;;;12.61;100.00;99959.47;10542320;28;20349;-81
2022/09/30 18:32:48;;;;;;;;;;;14.70;99.90;;;12.63;100.00;99946.78;10548138;28;19929;-82
2022/09/30 18:37:52;;;;;;;;;;;14.70;99.90;;;12.66;100.00;99941.09;10547848;28;20333;-83
2022/09/30 18:43:01;;;;;;;;;;;14.70;99.90;;;12.65;100.00;99936.75;10547433;28;19967;-82
2022/09/30 18:48:05;;;;;;;;;;;14.70;99.90;;;12.62;100.00;99955.78;10507254;28;20032;-82
2022/09/30 18:53:11;;;;;;;;;;;14.60;99.90;;;12.57;100.00;99972.34;10547427;28;19932;-82
2022/09/30 18:58:16;;;;;;;;;;;14.60;99.90;;;12.52;100.00;99990.72;10546601;28;19971;-82
2022/09/30 19:03:21;;;;;;;;;;;14.50;99.90;;;12.47;100.00;99991.28;10547062;28;19932;-82
2022/09/30 19:08:24;;;;;;;;;;;14.50;99.90;;;12.44;100.00;99981.00;10527970;28;19935;-83
2022/09/30 19:13:27;;;;;;;;;;;14.50;99.90;;;12.39;100.00;99978.06;10546618;28;19928;-82
2022/09/30 19:18:30;;;;;;;;;;;14.40;99.90;;;12.35;100.00;99978.59;10530554;28;19928;-83
2022/09/30 19:23:33;;;;;;;;;;;14.30;99.90;;;12.33;100.00;99976.13;10519780;28;19929;-83
2022/09/30 19:28:37;;;;;;;;;;;14.30;99.90;;;12.33;100.00;99979.63;10527383;28;19935;-82
2022/09/30 19:33:43;;;;;;;;;;;14.40;99.90;;;12.35;100.00;99974.09;10543910;28;19935;-83
2022/09/30 19:39:00;;;;;;;;;;;14.40;99.90;;;12.37;100.00;99977.41;10540680;28;19935;-83
2022/09/30 19:44:17;;;;;;;;;;;14.40;99.90;;;12.35;100.00;100019.41;10519189;28;19928;-83
2022/09/30 19:49:22;;;;;;;;;;;14.40;99.90;;;12.31;100.00;100012.81;10521717;28;19928;-82
2022/09/30 19:54:24;;;;;;;;;;;14.30;99.90;;;12.31;100.00;100024.28;10529213;28;20050;-83
2022/09/30 19:59:42;;;;;;;;;;;14.40;99.90;;;12.34;100.00;100039.06;10518660;28;20355;-82
2022/09/30 20:04:45;;;;;;;;;;;14.40;99.90;;;12.38;100.00;100034.22;10503303;28;20019;-83
2022/09/30 20:09:48;;;;;;;;;;;14.40;99.90;;;12.37;100.00;100033.38;10544997;28;19928;-82
2022/09/30 20:25:38;;;;;;;;;;;14.30;99.90;;;12.36;100.00;100026.41;10544559;28;19936;-83
2022/09/30 20:30:47;;;;;;;;;;;14.30;99.90;;;12.36;100.00;100026.41;10541746;28;19982;-83
2022/09/30 20:35:50;;;;;;;;;;;14.30;99.90;;;12.36;100.00;100018.41;10514173;28;19929;-83
2022/09/30 20:40:54;;;;;;;;;;;14.30;99.90;;;12.33;100.00;100011.59;10485518;28;19975;-84
2022/09/30 20:46:01;;;;;;;;;;;14.30;99.90;;;12.29;100.00;99994.34;10506852;28;19929;-84
2022/09/30 20:51:12;;;;;;;;;;;14.30;99.90;;;12.28;100.00;100000.66;10525765;28;19929;-84
2022/09/30 20:56:15;;;;;;;;;;;14.30;99.90;;;12.26;100.00;99989.38;10531615;28;19936;-81
2022/09/30 21:01:19;;;;;;;;;;;14.30;99.90;;;12.26;100.00;99994.69;10520396;28;19935;-82
2022/09/30 21:06:29;;;;;;;;;;;14.20;99.90;;;12.26;100.00;99999.19;10520236;28;20291;-81
2022/09/30 21:11:31;;;;;;;;;;;14.30;99.90;;;12.25;100.00;100000.22;10542992;28;19933;-81
2022/09/30 21:16:35;;;;;;;;;;;14.20;99.90;;;12.24;100.00;99985.25;10547394;28;19978;-81
2022/09/30 21:21:38;;;;;;;;;;;14.20;99.90;;;12.24;100.00;99996.72;10544938;28;19996;-81
2022/09/30 21:26:41;;;;;;;;;;;14.20;99.90;;;12.24;100.00;99986.06;10544280;28;19928;-81
2022/09/30 21:31:43;;;;;;;;;;;14.20;99.90;;;12.24;100.00;99985.25;10537157;28;20303;-82
2022/09/30 21:36:48;;;;;;;;;;;14.20;99.90;;;12.23;100.00;99989.72;10534057;28;19929;-82
2022/09/30 21:41:50;;;;;;;;;;;14.20;99.90;;;12.25;100.00;99998.38;10518235;28;20318;-81
2022/09/30 21:46:53;;;;;;;;;;;14.20;99.90;;;12.26;100.00;100004.53;10531401;28;19978;-82
2022/09/30 21:51:56;;;;;;;;;;;14.30;99.90;;;12.25;100.00;100013.53;10522426;28;20402;-81
2022/09/30 21:56:59;;;;;;;;;;;14.20;99.90;;;12.29;100.00;100034.31;10531548;28;19959;-82
2022/09/30 22:02:01;;;;;;;;;;;14.20;99.90;;;12.28;100.00;100015.81;10523066;28;20356;-82
2022/09/30 22:07:07;;;;;;;;;;;14.20;99.90;;;12.29;100.00;100030.78;10549067;28;19967;-82
2022/09/30 22:12:10;;;;;;;;;;;14.20;99.90;;;12.31;100.00;100018.13;10527436;28;20409;-82
2022/09/30 22:17:14;;;;;;;;;;;14.20;99.90;;;12.33;100.00;100006.25;10544114;28;19993;-82
2022/09/30 22:22:17;;;;;;;;;;;14.30;99.90;;;12.36;100.00;99988.28;10545586;28;19978;-82
2022/09/30 22:27:20;;;;;;;;;;;14.30;99.90;;;12.37;100.00;99995.25;10539408;28;19928;-82
2022/09/30 22:32:23;;;;;;;;;;;14.30;99.90;;;12.36;100.00;99999.75;10543706;28;20417;-82
2022/09/30 22:42:47;;;;;;;;;;;14.30;99.90;;;12.38;100.00;99970.25;10512118;28;19929;-82
2022/09/30 22:47:51;;;;;;;;;;;14.30;99.90;;;12.40;100.00;99977.03;10545995;28;20027;-83
2022/09/30 22:52:54;;;;;;;;;;;14.30;99.90;;;12.39;100.00;99978.06;10545280;28;20467;-82
2022/09/30 22:57:57;;;;;;;;;;;14.30;99.90;;;12.39;100.00;99978.06;10544934;28;20382;-83
2022/09/30 23:02:59;;;;;;;;;;;14.30;99.90;;;12.39;100.00;99978.06;10526732;28;19929;-83
2022/09/30 23:08:02;;;;;;;;;;;14.40;99.90;;;12.39;100.00;99983.38;10535314;28;20304;-83
2022/09/30 23:13:07;;;;;;;;;;;14.30;99.90;;;12.37;100.00;99977.41;10543724;28;19928;-83
2022/09/30 23:18:10;;;;;;;;;;;14.30;99.90;;;12.38;100.00;99983.56;10537797;28;20288;-83
2022/09/30 23:23:13;;;;;;;;;;;14.30;99.90;;;12.37;100.00;99976.59;10528428;28;19978;-83
2022/09/30 23:28:15;;;;;;;;;;;14.30;99.90;;;12.37;100.00;99972.09;10528260;28;19928;-82
2022/09/30 23:33:18;;;;;;;;;;;14.30;99.90;;;12.38;100.00;99987.06;10542551;28;20296;-83